createdAt,value
2018-02-03T00:00:51.341Z,96.84
2018-02-03T00:01:51.321Z,97.38
2018-02-03T00:02:51.298Z,99.22
2018-02-03T00:03:51.379Z,98.44
2018-02-03T00:04:51.243Z,98.44
2018-02-03T00:05:51.223Z,98.54
2018-02-03T00:06:51.281Z,98.63
2018-02-03T00:07:51.196Z,97.67
2018-02-03T00:08:51.453Z,97.96
2018-02-03T00:09:51.151Z,99.12
2018-02-03T00:10:51.199Z,99.22
2018-02-03T00:11:51.640Z,99.02
2018-02-03T00:12:51.062Z,99.46
2018-02-03T00:13:51.109Z,99.17
2018-02-03T00:14:51.791Z,98.88
2018-02-03T00:15:51.552Z,99.36
2018-02-03T00:16:50.986Z,99.55
2018-02-03T00:17:50.955Z,99.94
2018-02-03T00:18:50.948Z,99.99
2018-02-03T00:19:51.015Z,99.99
2018-02-03T00:20:51.450Z,99.99
2018-02-03T00:21:50.902Z,99.99
2018-02-03T00:22:50.855Z,99.99
2018-02-03T00:23:50.853Z,99.99
2018-02-03T00:24:50.958Z,99.99
2018-02-03T00:25:50.803Z,99.99
2018-02-03T00:26:50.766Z,99.99
2018-02-03T00:27:50.760Z,99.99
2018-02-03T00:28:50.734Z,99.99
2018-02-03T00:29:50.806Z,99.99
2018-02-03T00:30:50.694Z,99.99
2018-02-03T00:31:50.658Z,99.99
2018-02-03T00:32:50.706Z,99.99
2018-02-03T00:33:50.630Z,99.99
2018-02-03T00:34:50.719Z,99.99
2018-02-03T00:35:50.600Z,99.99
2018-02-03T00:36:50.565Z,99.99
2018-02-03T00:37:50.547Z,99.99
2018-02-03T00:38:51.037Z,99.99
2018-02-03T00:39:50.596Z,99.99
2018-02-03T00:40:50.452Z,99.99
2018-02-03T00:41:50.464Z,99.99
2018-02-03T00:42:50.430Z,99.99
2018-02-03T00:43:50.418Z,99.99
2018-02-03T00:44:50.378Z,99.99
2018-02-03T00:45:50.488Z,99.99
2018-02-03T00:46:50.333Z,99.99
2018-02-03T00:47:50.327Z,99.99
2018-02-03T00:48:50.288Z,99.99
2018-02-03T00:49:50.282Z,99.99
2018-02-03T00:50:50.254Z,99.99
2018-02-03T00:51:50.315Z,99.99
2018-02-03T00:52:50.201Z,99.99
2018-02-03T00:53:50.180Z,99.99
2018-02-03T00:54:50.193Z,99.99
2018-02-03T00:55:50.141Z,99.99
2018-02-03T00:56:50.372Z,99.99
2018-02-03T00:57:50.797Z,99.99
2018-02-03T00:58:50.082Z,99.99
2018-02-03T00:59:50.053Z,99.99
2018-02-03T01:00:50.564Z,99.99
2018-02-03T01:01:50.016Z,99.99
2018-02-03T01:02:50.087Z,99.99
2018-02-03T01:03:50.523Z,99.99
2018-02-03T01:04:49.917Z,99.99
2018-02-03T01:05:49.915Z,99.99
2018-02-03T01:06:49.868Z,99.99
2018-02-03T01:07:50.025Z,99.99
2018-02-03T01:08:49.880Z,99.99
2018-02-03T01:09:50.744Z,99.99
2018-02-03T01:10:49.825Z,99.99
2018-02-03T01:11:49.760Z,99.99
2018-02-03T01:12:49.904Z,99.99
2018-02-03T01:13:49.709Z,99.99
2018-02-03T01:14:50.218Z,99.99
2018-02-03T01:15:50.254Z,99.99
2018-02-03T01:16:49.633Z,99.99
2018-02-03T01:17:49.866Z,99.99
2018-02-03T01:18:49.611Z,99.99
2018-02-03T01:19:49.580Z,99.99
2018-02-03T01:20:49.604Z,99.99
2018-02-03T01:21:49.684Z,99.99
2018-02-03T01:22:50.138Z,99.99
2018-02-03T01:23:49.987Z,99.99
2018-02-03T01:24:49.515Z,99.99
2018-02-03T01:25:49.510Z,99.99
2018-02-03T01:26:49.412Z,99.99
2018-02-03T01:27:49.412Z,99.99
2018-02-03T01:28:49.717Z,99.99
2018-02-03T01:29:49.409Z,99.99
2018-02-03T01:30:49.346Z,99.99
2018-02-03T01:31:49.335Z,99.99
2018-02-03T01:32:49.301Z,99.99
2018-02-03T01:33:49.831Z,99.99
2018-02-03T01:34:49.359Z,99.99
2018-02-03T01:35:49.205Z,99.99
2018-02-03T01:36:49.238Z,99.99
2018-02-03T01:37:49.203Z,99.99
2018-02-03T01:38:49.714Z,99.99
2018-02-03T01:39:49.785Z,99.99
2018-02-03T01:40:49.662Z,99.99
2018-02-03T01:41:49.085Z,99.99
2018-02-03T01:42:49.064Z,99.99
2018-02-03T01:43:49.066Z,99.99
2018-02-03T01:44:49.207Z,99.99
2018-02-03T01:45:48.992Z,99.99
2018-02-03T01:46:48.993Z,99.99
2018-02-03T01:47:49.634Z,99.99
2018-02-03T01:48:48.983Z,99.99
2018-02-03T01:49:50.164Z,99.99
2018-02-03T01:50:48.986Z,99.99
2018-02-03T01:51:49.525Z,99.99
2018-02-03T01:52:48.828Z,99.99
2018-02-03T01:53:48.838Z,99.99
2018-02-03T01:54:48.887Z,99.99
2018-02-03T01:55:48.828Z,99.99
2018-02-03T01:56:48.820Z,99.99
2018-02-03T01:57:48.777Z,99.99
2018-02-03T01:58:49.308Z,99.99
2018-02-03T02:00:48.748Z,99.99
2018-02-03T02:01:48.623Z,99.99
2018-02-03T02:02:49.138Z,99.99
2018-02-03T02:03:49.088Z,99.99
2018-02-03T02:04:49.189Z,99.99
2018-02-03T02:05:48.969Z,99.99
2018-02-03T02:06:48.562Z,99.99
2018-02-03T02:07:48.511Z,99.99
2018-02-03T02:08:48.987Z,99.99
2018-02-03T02:09:48.421Z,99.99
2018-02-03T02:10:48.503Z,99.99
2018-02-03T02:11:48.900Z,99.99
2018-02-03T02:12:48.363Z,99.99
2018-02-03T02:13:48.375Z,99.99
2018-02-03T02:14:48.320Z,99.99
2018-02-03T02:15:48.882Z,99.99
2018-02-03T02:16:48.474Z,99.99
2018-02-03T02:17:48.273Z,99.99
2018-02-03T02:18:48.244Z,99.99
2018-02-03T02:19:48.712Z,99.99
2018-02-03T02:20:48.792Z,99.99
2018-02-03T02:21:48.244Z,99.99
2018-02-03T02:22:48.139Z,99.99
2018-02-03T02:23:48.613Z,99.99
2018-02-03T02:24:48.107Z,99.99
2018-02-03T02:25:48.071Z,99.99
2018-02-03T02:26:48.285Z,99.99
2018-02-03T02:27:48.655Z,99.99
2018-02-03T02:28:48.016Z,99.99
2018-02-03T02:29:48.503Z,99.99
2018-02-03T02:30:48.508Z,99.99
2018-02-03T02:31:48.466Z,99.99
2018-02-03T02:32:48.314Z,99.99
2018-02-03T02:33:47.969Z,99.99
2018-02-03T02:34:47.937Z,99.99
2018-02-03T02:35:47.878Z,99.99
2018-02-03T02:36:48.106Z,99.99
2018-02-03T02:37:47.791Z,99.99
2018-02-03T02:38:47.836Z,99.99
2018-02-03T02:39:48.360Z,99.99
2018-02-03T02:40:47.809Z,99.99
2018-02-03T02:41:48.117Z,99.99
2018-02-03T02:42:48.160Z,99.99
2018-02-03T02:43:48.029Z,99.99
2018-02-03T02:44:48.288Z,99.99
2018-02-03T02:45:47.720Z,99.99
2018-02-03T02:46:48.084Z,99.99
2018-02-03T02:47:48.118Z,99.99
2018-02-03T02:48:47.552Z,99.99
2018-02-03T02:49:47.509Z,99.99
2018-02-03T02:50:47.467Z,99.99
2018-02-03T02:51:48.030Z,99.99
2018-02-03T02:52:47.602Z,99.99
2018-02-03T02:53:47.450Z,99.99
2018-02-03T02:54:47.494Z,99.99
2018-02-03T02:55:47.872Z,99.99
2018-02-03T02:56:47.665Z,99.99
2018-02-03T02:57:47.513Z,99.99
2018-02-03T02:58:47.363Z,99.99
2018-02-03T02:59:47.407Z,99.99
2018-02-03T03:00:47.264Z,99.99
2018-02-03T03:01:47.236Z,99.99
2018-02-03T03:02:47.933Z,99.99
2018-02-03T03:03:47.226Z,99.99
2018-02-03T03:04:47.280Z,99.99
2018-02-03T03:05:47.731Z,99.99
2018-02-03T03:06:47.163Z,99.99
2018-02-03T03:07:47.274Z,99.99
2018-02-03T03:08:47.479Z,99.99
2018-02-03T03:09:47.445Z,99.99
2018-02-03T03:10:47.026Z,99.99
2018-02-03T03:11:47.635Z,99.99
2018-02-03T03:12:47.210Z,99.99
2018-02-03T03:13:47.077Z,99.99
2018-02-03T03:14:47.356Z,99.99
2018-02-03T03:15:47.707Z,99.99
2018-02-03T03:16:46.937Z,99.99
2018-02-03T03:17:47.118Z,99.99
2018-02-03T03:18:46.907Z,99.99
2018-02-03T03:19:46.912Z,99.99
2018-02-03T03:20:47.327Z,99.99
2018-02-03T03:21:47.163Z,99.99
2018-02-03T03:22:46.921Z,99.99
2018-02-03T03:23:46.681Z,99.99
2018-02-03T03:24:46.797Z,99.99
2018-02-03T03:25:47.173Z,99.99
2018-02-03T03:26:46.683Z,99.99
2018-02-03T03:27:46.599Z,99.99
2018-02-03T03:28:46.701Z,99.99
2018-02-03T03:29:46.498Z,99.99
2018-02-03T03:30:47.180Z,99.99
2018-02-03T03:31:46.458Z,99.99
2018-02-03T03:32:46.511Z,99.99
2018-02-03T03:33:46.841Z,99.99
2018-02-03T03:34:46.641Z,99.99
2018-02-03T03:35:47.029Z,99.99
2018-02-03T03:36:46.451Z,99.99
2018-02-03T03:37:46.881Z,99.99
2018-02-03T03:38:46.295Z,99.99
2018-02-03T03:39:47.111Z,99.99
2018-02-03T03:40:46.756Z,99.99
2018-02-03T03:41:46.569Z,99.99
2018-02-03T03:42:46.840Z,99.99
2018-02-03T03:43:46.756Z,99.99
2018-02-03T03:44:46.226Z,99.99
2018-02-03T03:45:46.162Z,99.99
2018-02-03T03:46:46.184Z,99.99
2018-02-03T03:47:46.047Z,99.99
2018-02-03T03:48:46.043Z,99.99
2018-02-03T03:49:46.153Z,99.99
2018-02-03T03:50:46.090Z,99.99
2018-02-03T03:51:46.045Z,99.99
2018-02-03T03:52:46.015Z,99.99
2018-02-03T03:53:45.960Z,99.99
2018-02-03T03:54:46.005Z,99.99
2018-02-03T03:55:45.980Z,99.99
2018-02-03T03:56:45.847Z,99.99
2018-02-03T03:57:46.385Z,99.99
2018-02-03T03:58:45.847Z,99.99
2018-02-03T03:59:45.860Z,99.99
2018-02-03T04:00:45.767Z,99.99
2018-02-03T04:01:46.325Z,99.99
2018-02-03T04:02:45.748Z,99.99
2018-02-03T04:03:45.669Z,99.99
2018-02-03T04:04:45.712Z,99.99
2018-02-03T04:05:45.811Z,99.99
2018-02-03T04:06:45.628Z,99.99
2018-02-03T04:07:45.678Z,99.99
2018-02-03T04:08:45.590Z,99.69
2018-02-03T04:09:45.556Z,99.11
2018-02-03T04:10:46.088Z,99.99
2018-02-03T04:11:45.574Z,99.99
2018-02-03T04:12:45.450Z,99.99
2018-02-03T04:13:45.401Z,99.99
2018-02-03T04:14:45.940Z,99.99
2018-02-03T04:15:45.371Z,99.99
2018-02-03T04:16:45.372Z,99.99
2018-02-03T04:17:45.443Z,99.99
2018-02-03T04:18:45.617Z,99.99
2018-02-03T04:19:45.273Z,99.99
2018-02-03T04:20:45.243Z,99.99
2018-02-03T04:21:45.240Z,99.99
2018-02-03T04:22:45.832Z,99.99
2018-02-03T04:23:45.581Z,99.99
2018-02-03T04:24:45.143Z,99.99
2018-02-03T04:25:46.056Z,99.99
2018-02-03T04:26:45.095Z,99.99
2018-02-03T04:27:45.165Z,99.99
2018-02-03T04:28:45.074Z,99.99
2018-02-03T04:29:45.085Z,99.99
2018-02-03T04:30:45.016Z,99.99
2018-02-03T04:31:44.982Z,99.99
2018-02-03T04:32:45.324Z,99.99
2018-02-03T04:33:44.917Z,99.99
2018-02-03T04:34:44.907Z,99.99
2018-02-03T04:35:44.883Z,99.99
2018-02-03T04:36:44.851Z,99.99
2018-02-03T04:37:44.920Z,99.99
2018-02-03T04:38:44.798Z,99.99
2018-02-03T04:39:44.767Z,99.99
2018-02-03T04:40:44.764Z,99.99
2018-02-03T04:41:44.717Z,99.99
2018-02-03T04:42:44.761Z,99.99
2018-02-03T04:43:44.784Z,99.99
2018-02-03T04:44:44.706Z,99.99
2018-02-03T04:45:44.663Z,99.99
2018-02-03T04:46:44.609Z,99.99
2018-02-03T04:47:44.571Z,99.99
2018-02-03T04:48:44.651Z,99.99
2018-02-03T04:49:44.535Z,99.99
2018-02-03T04:50:44.500Z,99.99
2018-02-03T04:51:44.470Z,99.99
2018-02-03T04:52:44.450Z,99.99
2018-02-03T04:53:44.430Z,99.99
2018-02-03T04:54:44.511Z,99.99
2018-02-03T04:55:44.371Z,99.99
2018-02-03T04:56:44.344Z,99.99
2018-02-03T04:57:44.333Z,99.99
2018-02-03T04:58:44.311Z,99.99
2018-02-03T04:59:44.271Z,99.99
2018-02-03T05:00:44.359Z,99.99
2018-02-03T05:01:44.222Z,99.99
2018-02-03T05:02:44.193Z,99.99
2018-02-03T05:03:44.173Z,99.99
2018-02-03T05:04:44.197Z,99.99
2018-02-03T05:05:44.283Z,99.99
2018-02-03T05:06:44.115Z,99.99
2018-02-03T05:07:44.072Z,99.99
2018-02-03T05:08:44.067Z,99.99
2018-02-03T05:09:44.034Z,99.99
2018-02-03T05:10:44.144Z,99.99
2018-02-03T05:11:44.103Z,99.99
2018-02-03T05:12:43.945Z,99.99
2018-02-03T05:13:43.917Z,99.99
2018-02-03T05:14:43.921Z,99.99
2018-02-03T05:15:43.966Z,99.99
2018-02-03T05:16:43.844Z,99.99
2018-02-03T05:17:43.841Z,99.11
2018-02-03T05:18:43.807Z,97.28
2018-02-03T05:19:43.781Z,97.38
2018-02-03T05:20:43.798Z,97.38
2018-02-03T05:21:43.821Z,96.41
2018-02-03T05:22:43.687Z,95.40
2018-02-03T05:23:43.666Z,94.72
2018-02-03T05:24:43.638Z,93.27
2018-02-03T05:25:43.619Z,92.74
2018-02-03T05:26:43.688Z,93.51
2018-02-03T05:27:43.569Z,94.34
2018-02-03T05:28:43.538Z,93.76
2018-02-03T05:29:43.535Z,95.30
2018-02-03T05:30:43.571Z,95.11
2018-02-03T05:31:43.476Z,93.56
2018-02-03T05:32:43.556Z,94.14
2018-02-03T05:33:43.426Z,94.82
2018-02-03T05:34:43.417Z,93.47
2018-02-03T05:35:43.447Z,93.18
2018-02-03T05:36:43.340Z,92.60
2018-02-03T05:37:43.320Z,93.95
2018-02-03T05:38:43.392Z,92.41
2018-02-03T05:39:43.272Z,94.24
2018-02-03T05:40:43.244Z,92.31
2018-02-03T05:41:43.230Z,91.92
2018-02-03T05:42:43.206Z,92.11
2018-02-03T05:43:43.272Z,89.99
2018-02-03T05:44:43.142Z,90.19
2018-02-03T05:45:43.125Z,89.89
2018-02-03T05:46:43.094Z,90.28
2018-02-03T05:47:43.085Z,90.28
2018-02-03T05:48:43.161Z,89.99
2018-02-03T05:49:43.023Z,88.73
2018-02-03T05:50:43.001Z,89.70
2018-02-03T05:51:42.984Z,90.28
2018-02-03T05:52:42.972Z,90.57
2018-02-03T05:53:43.027Z,90.67
2018-02-03T05:54:42.904Z,90.47
2018-02-03T05:55:42.877Z,90.67
2018-02-03T05:56:42.845Z,90.67
2018-02-03T05:57:42.814Z,89.61
2018-02-03T05:58:42.807Z,89.03
2018-02-03T05:59:42.875Z,89.51
2018-02-03T06:00:42.757Z,88.45
2018-02-03T06:01:42.724Z,91.83
2018-02-03T06:02:42.711Z,91.44
2018-02-03T06:03:42.677Z,90.28
2018-02-03T06:04:42.813Z,90.86
2018-02-03T06:05:42.635Z,91.15
2018-02-03T06:06:42.597Z,90.53
2018-02-03T06:07:42.579Z,91.78
2018-02-03T06:08:42.549Z,96.31
2018-02-03T06:09:42.629Z,92.55
2018-02-03T06:10:42.516Z,91.78
2018-02-03T06:11:42.481Z,92.94
2018-02-03T06:12:42.449Z,92.46
2018-02-03T06:13:42.419Z,92.55
2018-02-03T06:14:42.415Z,92.84
2018-02-03T06:15:42.481Z,93.13
2018-02-03T06:16:42.352Z,91.59
2018-02-03T06:17:42.321Z,92.94
2018-02-03T06:18:42.315Z,93.80
2018-02-03T06:19:42.282Z,92.46
2018-02-03T06:20:42.254Z,93.90
2018-02-03T06:21:42.365Z,92.55
2018-02-03T06:22:42.204Z,93.95
2018-02-03T06:23:42.173Z,93.66
2018-02-03T06:24:42.154Z,93.42
2018-02-03T06:25:42.144Z,95.11
2018-02-03T06:26:42.214Z,92.22
2018-02-03T06:27:42.098Z,93.66
2018-02-03T06:28:42.053Z,90.48
2018-02-03T06:29:42.041Z,92.65
2018-02-03T06:30:42.022Z,89.85
2018-02-03T06:31:42.041Z,91.11
2018-02-03T06:32:42.084Z,90.05
2018-02-03T06:33:41.933Z,90.43
2018-02-03T06:34:41.982Z,89.95
2018-02-03T06:35:41.881Z,88.79
2018-02-03T06:36:41.856Z,88.02
2018-02-03T06:37:41.847Z,89.47
2018-02-03T06:38:41.927Z,87.82
2018-02-03T06:39:41.813Z,90.43
2018-02-03T06:40:41.756Z,89.65
2018-02-03T06:41:41.736Z,91.30
2018-02-03T06:42:41.715Z,89.65
2018-02-03T06:43:41.776Z,90.14
2018-02-03T06:44:41.665Z,90.23
2018-02-03T06:45:41.643Z,88.50
2018-02-03T06:46:41.626Z,88.79
2018-02-03T06:47:41.599Z,88.21
2018-02-03T06:48:41.658Z,88.11
2018-02-03T06:49:41.543Z,89.27
2018-02-03T06:50:41.507Z,88.40
2018-02-03T06:51:41.478Z,88.69
2018-02-03T06:52:41.467Z,90.14
2018-02-03T06:53:41.436Z,86.96
2018-02-03T06:54:41.514Z,88.69
2018-02-03T06:55:41.395Z,88.02
2018-02-03T06:56:41.356Z,88.69
2018-02-03T06:57:41.357Z,87.82
2018-02-03T06:58:41.317Z,87.34
2018-02-03T06:59:41.303Z,87.34
2018-02-03T07:00:41.357Z,88.59
2018-02-03T07:01:41.230Z,89.07
2018-02-03T07:02:41.202Z,88.69
2018-02-03T07:03:41.205Z,85.50
2018-02-03T07:04:41.156Z,88.69
2018-02-03T07:05:41.250Z,86.76
2018-02-03T07:06:41.129Z,86.38
2018-02-03T07:07:41.104Z,85.41
2018-02-03T07:08:41.069Z,86.76
2018-02-03T07:09:41.032Z,85.31
2018-02-03T07:10:41.056Z,85.60
2018-02-03T07:11:41.103Z,86.96
2018-02-03T07:12:40.973Z,86.38
2018-02-03T07:13:40.952Z,84.64
2018-02-03T07:14:40.914Z,85.12
2018-02-03T07:15:40.894Z,84.83
2018-02-03T07:16:40.961Z,84.83
2018-02-03T07:17:40.836Z,86.18
2018-02-03T07:18:40.812Z,86.86
2018-02-03T07:19:40.785Z,87.34
2018-02-03T07:20:40.772Z,87.68
2018-02-03T07:21:40.793Z,88.79
2018-02-03T07:22:40.801Z,85.56
2018-02-03T07:23:40.697Z,88.17
2018-02-03T07:24:40.675Z,88.31
2018-02-03T07:25:40.626Z,86.86
2018-02-03T07:26:40.746Z,85.70
2018-02-03T07:27:40.585Z,85.12
2018-02-03T07:28:40.559Z,84.83
2018-02-03T07:29:40.546Z,84.74
2018-02-03T07:30:40.508Z,84.88
2018-02-03T07:31:40.585Z,84.48
2018-02-03T07:32:40.461Z,83.39
2018-02-03T07:33:40.446Z,84.97
2018-02-03T07:34:40.519Z,83.04
2018-02-03T07:35:40.386Z,82.84
2018-02-03T07:36:40.362Z,83.91
2018-02-03T07:37:40.396Z,82.75
2018-02-03T07:38:40.309Z,84.39
2018-02-03T07:39:40.281Z,83.42
2018-02-03T07:40:40.261Z,85.45
2018-02-03T07:41:40.272Z,85.26
2018-02-03T07:42:40.312Z,84.35
2018-02-03T07:43:40.258Z,83.87
2018-02-03T07:44:40.222Z,83.62
2018-02-03T07:45:40.154Z,84.54
2018-02-03T07:46:40.228Z,83.29
2018-02-03T07:47:40.161Z,84.06
2018-02-03T07:48:40.153Z,84.30
2018-02-03T07:49:40.084Z,86.18
2018-02-03T07:50:40.004Z,83.42
2018-02-03T07:51:39.996Z,83.62
2018-02-03T07:52:39.971Z,83.09
2018-02-03T07:53:39.991Z,82.51
2018-02-03T07:54:39.922Z,83.91
2018-02-03T07:55:39.915Z,83.29
2018-02-03T07:56:39.865Z,84.39
2018-02-03T07:57:39.843Z,83.67
2018-02-03T07:58:39.981Z,83.14
2018-02-03T07:59:39.801Z,83.23
2018-02-03T08:00:39.753Z,83.91
2018-02-03T08:01:39.749Z,83.96
2018-02-03T08:02:39.723Z,84.39
2018-02-03T08:03:39.796Z,83.39
2018-02-03T08:04:39.671Z,83.23
2018-02-03T08:05:39.637Z,83.23
2018-02-03T08:06:39.612Z,86.22
2018-02-03T08:07:39.597Z,83.72
2018-02-03T08:08:39.619Z,83.72
2018-02-03T08:09:39.546Z,82.84
2018-02-03T08:10:39.509Z,83.04
2018-02-03T08:11:39.487Z,84.88
2018-02-03T08:12:39.476Z,82.75
2018-02-03T08:13:39.439Z,83.42
2018-02-03T08:14:39.519Z,83.14
2018-02-03T08:15:39.389Z,81.98
2018-02-03T08:16:39.359Z,83.23
2018-02-03T08:17:39.328Z,84.97
2018-02-03T08:18:39.317Z,84.74
2018-02-03T08:19:39.280Z,82.94
2018-02-03T08:20:39.378Z,83.23
2018-02-03T08:21:39.232Z,82.26
2018-02-03T08:22:39.238Z,84.20
2018-02-03T08:23:39.203Z,84.30
2018-02-03T08:24:39.180Z,84.48
2018-02-03T08:25:39.208Z,84.25
2018-02-03T08:26:39.231Z,84.16
2018-02-03T08:27:39.099Z,84.44
2018-02-03T08:28:39.065Z,84.54
2018-02-03T08:29:39.048Z,84.64
2018-02-03T08:30:39.091Z,84.93
2018-02-03T08:31:39.085Z,84.93
2018-02-03T08:32:38.962Z,85.50
2018-02-03T08:33:38.935Z,86.24
2018-02-03T08:34:38.952Z,87.68
2018-02-03T08:35:38.885Z,86.91
2018-02-03T08:36:38.972Z,86.43
2018-02-03T08:37:38.902Z,88.26
2018-02-03T08:38:38.825Z,87.45
2018-02-03T08:39:38.787Z,88.45
2018-02-03T08:40:38.766Z,88.60
2018-02-03T08:41:38.836Z,89.18
2018-02-03T08:42:38.705Z,88.41
2018-02-03T08:43:38.703Z,88.22
2018-02-03T08:44:38.656Z,87.93
2018-02-03T08:45:38.636Z,88.60
2018-02-03T08:46:38.738Z,88.22
2018-02-03T08:47:38.588Z,88.12
2018-02-03T08:48:38.585Z,87.35
2018-02-03T08:49:38.555Z,87.06
2018-02-03T08:50:38.526Z,88.36
2018-02-03T08:51:38.660Z,86.91
2018-02-03T08:52:38.460Z,86.82
2018-02-03T08:53:38.449Z,87.59
2018-02-03T08:54:38.424Z,86.04
2018-02-03T08:55:38.405Z,87.30
2018-02-03T08:56:38.368Z,88.45
2018-02-03T08:57:38.429Z,87.30
2018-02-03T08:58:38.309Z,89.23
2018-02-03T08:59:38.280Z,87.64
2018-02-03T09:00:38.281Z,88.51
2018-02-03T09:01:38.248Z,88.60
2018-02-03T09:02:38.261Z,88.22
2018-02-03T09:03:38.319Z,89.76
2018-02-03T09:04:38.167Z,88.12
2018-02-03T09:05:38.150Z,89.95
2018-02-03T09:06:38.124Z,87.26
2018-02-03T09:07:38.082Z,88.22
2018-02-03T09:08:38.160Z,88.02
2018-02-03T09:09:38.038Z,86.96
2018-02-03T09:10:38.002Z,86.52
2018-02-03T09:11:37.994Z,84.98
2018-02-03T09:12:37.969Z,85.27
2018-02-03T09:13:38.028Z,86.24
2018-02-03T09:14:37.902Z,84.54
2018-02-03T09:15:37.890Z,84.25
2018-02-03T09:16:37.870Z,84.64
2018-02-03T09:17:37.824Z,84.74
2018-02-03T09:18:37.863Z,84.64
2018-02-03T09:19:37.793Z,85.27
2018-02-03T09:20:37.757Z,86.62
2018-02-03T09:21:37.726Z,86.52
2018-02-03T09:22:37.706Z,86.91
2018-02-03T09:23:37.737Z,87.59
2018-02-03T09:24:37.645Z,88.89
2018-02-03T09:25:37.668Z,88.12
2018-02-03T09:26:37.612Z,88.12
2018-02-03T09:27:37.583Z,88.31
2018-02-03T09:28:37.608Z,88.70
2018-02-03T09:29:37.525Z,88.41
2018-02-03T09:30:37.515Z,88.99
2018-02-03T09:31:37.476Z,90.44
2018-02-03T09:32:37.482Z,88.60
2018-02-03T09:33:37.417Z,88.70
2018-02-03T09:34:37.510Z,89.57
2018-02-03T09:35:37.418Z,87.40
2018-02-03T09:36:37.355Z,87.10
2018-02-03T09:37:37.337Z,87.49
2018-02-03T09:38:37.297Z,86.91
2018-02-03T09:39:37.278Z,86.62
2018-02-03T09:40:37.341Z,85.80
2018-02-03T09:41:37.228Z,86.91
2018-02-03T09:42:37.202Z,85.85
2018-02-03T09:43:37.179Z,87.78
2018-02-03T09:44:37.159Z,87.30
2018-02-03T09:45:37.237Z,86.33
2018-02-03T09:46:37.091Z,86.62
2018-02-03T09:47:37.065Z,87.40
2018-02-03T09:48:37.041Z,85.94
2018-02-03T09:49:37.028Z,87.49
2018-02-03T09:50:37.090Z,85.66
2018-02-03T09:51:36.976Z,84.83
2018-02-03T09:52:36.989Z,85.02
2018-02-03T09:53:36.918Z,84.54
2018-02-03T09:54:36.882Z,84.83
2018-02-03T09:55:36.963Z,84.35
2018-02-03T09:56:36.848Z,84.54
2018-02-03T09:57:36.829Z,85.12
2018-02-03T09:58:36.784Z,85.22
2018-02-03T09:59:36.767Z,84.83
2018-02-03T10:00:36.834Z,84.74
2018-02-03T10:01:36.713Z,84.74
2018-02-03T10:02:36.703Z,85.50
2018-02-03T10:03:36.665Z,85.70
2018-02-03T10:04:36.635Z,86.38
2018-02-03T10:05:36.656Z,85.60
2018-02-03T10:06:36.584Z,85.22
2018-02-03T10:07:36.574Z,85.31
2018-02-03T10:08:36.537Z,86.18
2018-02-03T10:09:36.523Z,85.46
2018-02-03T10:10:36.481Z,87.10
2018-02-03T10:11:36.559Z,86.14
2018-02-03T10:12:36.426Z,85.46
2018-02-03T10:13:36.420Z,86.72
2018-02-03T10:14:36.390Z,87.49
2018-02-03T10:15:36.356Z,87.30
2018-02-03T10:16:36.346Z,87.88
2018-02-03T10:17:36.408Z,86.72
2018-02-03T10:18:36.283Z,86.52
2018-02-03T10:19:36.268Z,87.10
2018-02-03T10:20:36.241Z,86.77
2018-02-03T10:21:36.227Z,86.39
2018-02-03T10:22:36.289Z,87.97
2018-02-03T10:23:36.162Z,86.68
2018-02-03T10:24:36.120Z,85.56
2018-02-03T10:25:36.106Z,86.72
2018-02-03T10:26:36.099Z,86.48
2018-02-03T10:27:36.111Z,86.82
2018-02-03T10:28:36.050Z,86.77
2018-02-03T10:29:36.024Z,91.98
2018-02-03T10:30:35.986Z,89.95
2018-02-03T10:31:35.962Z,88.22
2018-02-03T10:32:36.025Z,88.22
2018-02-03T10:33:35.909Z,88.12
2018-02-03T10:34:35.873Z,89.04
2018-02-03T10:35:35.858Z,89.04
2018-02-03T10:36:35.825Z,88.95
2018-02-03T10:37:35.892Z,89.53
2018-02-03T10:38:35.772Z,89.91
2018-02-03T10:39:35.753Z,89.91
2018-02-03T10:40:35.735Z,90.00
2018-02-03T10:41:35.714Z,90.39
2018-02-03T10:42:35.775Z,90.20
2018-02-03T10:43:35.655Z,91.45
2018-02-03T10:44:35.615Z,92.51
2018-02-03T10:45:35.601Z,90.64
2018-02-03T10:46:35.566Z,90.20
2018-02-03T10:47:35.537Z,90.34
2018-02-03T10:48:35.618Z,91.12
2018-02-03T10:49:35.494Z,90.39
2018-02-03T10:50:35.482Z,92.03
2018-02-03T10:51:35.437Z,90.34
2018-02-03T10:52:35.428Z,90.88
2018-02-03T10:53:35.436Z,90.06
2018-02-03T10:54:35.456Z,89.86
2018-02-03T10:55:35.334Z,90.06
2018-02-03T10:56:35.305Z,90.88
2018-02-03T10:57:35.273Z,92.66
2018-02-03T10:58:35.254Z,91.02
2018-02-03T10:59:35.227Z,92.94
2018-02-03T11:00:35.313Z,91.50
2018-02-03T11:01:35.188Z,92.47
2018-02-03T11:02:35.156Z,90.92
2018-02-03T11:03:35.142Z,91.31
2018-02-03T11:04:35.095Z,91.83
2018-02-03T11:05:35.186Z,90.97
2018-02-03T11:06:35.046Z,89.81
2018-02-03T11:07:35.018Z,90.97
2018-02-03T11:08:34.997Z,90.48
2018-02-03T11:09:34.970Z,90.48
2018-02-03T11:10:35.051Z,90.39
2018-02-03T11:11:34.917Z,90.30
2018-02-03T11:12:34.914Z,89.91
2018-02-03T11:13:34.871Z,91.26
2018-02-03T11:14:34.857Z,90.10
2018-02-03T11:15:34.919Z,89.14
2018-02-03T11:16:34.802Z,88.02
2018-02-03T11:17:34.759Z,88.60
2018-02-03T11:18:34.740Z,88.31
2018-02-03T11:19:34.752Z,88.60
2018-02-03T11:20:34.707Z,88.79
2018-02-03T11:21:34.762Z,88.79
2018-02-03T11:22:34.648Z,88.51
2018-02-03T11:23:34.616Z,88.22
2018-02-03T11:24:34.597Z,88.22
2018-02-03T11:25:34.560Z,88.22
2018-02-03T11:26:34.580Z,87.74
2018-02-03T11:27:34.570Z,88.84
2018-02-03T11:28:34.482Z,88.22
2018-02-03T11:29:34.456Z,87.49
2018-02-03T11:30:34.442Z,88.02
2018-02-03T11:31:34.404Z,87.74
2018-02-03T11:32:34.385Z,87.26
2018-02-03T11:33:34.402Z,87.16
2018-02-03T11:34:34.324Z,87.35
2018-02-03T11:35:34.309Z,88.99
2018-02-03T11:36:34.285Z,89.37
2018-02-03T11:37:34.264Z,88.22
2018-02-03T11:38:34.282Z,90.15
2018-02-03T11:39:34.274Z,88.60
2018-02-03T11:40:34.225Z,88.22
2018-02-03T11:41:34.143Z,87.54
2018-02-03T11:42:34.127Z,87.64
2018-02-03T11:43:34.136Z,88.22
2018-02-03T11:44:34.062Z,88.70
2018-02-03T11:45:34.057Z,89.47
2018-02-03T11:46:34.025Z,88.60
2018-02-03T11:47:33.998Z,89.37
2018-02-03T11:48:34.018Z,88.79
2018-02-03T11:49:33.935Z,90.15
2018-02-03T11:50:33.919Z,89.76
2018-02-03T11:51:33.901Z,89.53
2018-02-03T11:52:35.424Z,89.72
2018-02-03T11:53:36.530Z,89.14
2018-02-03T11:54:33.819Z,90.68
2018-02-03T11:55:33.820Z,89.72
2018-02-03T11:56:33.996Z,90.97
2018-02-03T11:57:33.772Z,92.99
2018-02-03T11:58:33.831Z,91.06
2018-02-03T11:59:34.016Z,93.28
2018-02-03T12:00:33.663Z,91.55
2018-02-03T12:01:33.673Z,90.30
2018-02-03T12:02:33.636Z,90.39
2018-02-03T12:03:33.592Z,92.32
2018-02-03T12:04:33.620Z,90.39
2018-02-03T12:05:33.580Z,89.81
2018-02-03T12:06:33.513Z,90.78
2018-02-03T12:07:33.481Z,89.91
2018-02-03T12:08:33.461Z,89.14
2018-02-03T12:09:33.432Z,89.81
2018-02-03T12:10:33.524Z,89.72
2018-02-03T12:11:33.383Z,89.62
2018-02-03T12:12:33.368Z,88.37
2018-02-03T12:13:33.325Z,89.23
2018-02-03T12:14:33.308Z,88.02
2018-02-03T12:15:33.273Z,88.22
2018-02-03T12:16:33.347Z,88.79
2018-02-03T12:17:33.236Z,87.83
2018-02-03T12:18:33.196Z,86.87
2018-02-03T12:19:33.178Z,86.87
2018-02-03T12:20:33.185Z,87.16
2018-02-03T12:21:33.219Z,86.58
2018-02-03T12:22:33.095Z,87.83
2018-02-03T12:23:33.105Z,88.41
2018-02-03T12:24:33.048Z,86.58
2018-02-03T12:25:33.131Z,87.83
2018-02-03T12:26:33.048Z,86.52
2018-02-03T12:27:32.986Z,86.19
2018-02-03T12:28:32.942Z,86.82
2018-02-03T12:29:32.926Z,85.37
2018-02-03T12:30:32.907Z,88.65
2018-02-03T12:31:33.220Z,86.43
2018-02-03T12:32:32.988Z,85.08
2018-02-03T12:33:32.812Z,85.46
2018-02-03T12:34:32.807Z,84.21
2018-02-03T12:35:32.758Z,84.74
2018-02-03T12:36:32.738Z,84.93
2018-02-03T12:37:33.006Z,84.93
2018-02-03T12:38:32.846Z,84.83
2018-02-03T12:39:32.663Z,84.54
2018-02-03T12:40:32.631Z,85.31
2018-02-03T12:41:32.872Z,85.31
2018-02-03T12:42:32.586Z,85.22
2018-02-03T12:43:32.882Z,84.97
2018-02-03T12:44:32.532Z,84.97
2018-02-03T12:45:32.511Z,84.93
2018-02-03T12:46:32.482Z,84.20
2018-02-03T12:47:32.454Z,84.97
2018-02-03T12:48:32.761Z,85.45
2018-02-03T12:49:32.504Z,85.26
2018-02-03T12:50:32.386Z,89.07
2018-02-03T12:51:32.367Z,88.97
2018-02-03T12:52:32.334Z,87.04
2018-02-03T12:53:32.304Z,83.04